sensor_id;sensor_type;location;lat;lon;timestamp;temperature;humidity
70801;DHT22;59616;52.170;5.386;2022-09-12T00:01:18;15.70;80.70
70801;DHT22;59616;52.170;5.386;2022-09-12T00:03:45;15.70;80.60
70801;DHT22;59616;52.170;5.386;2022-09-12T00:06:18;15.70;80.70
70801;DHT22;59616;52.170;5.386;2022-09-12T00:08:49;15.60;80.60
70801;DHT22;59616;52.170;5.386;2022-09-12T00:11:16;15.60;80.60
70801;DHT22;59616;52.170;5.386;2022-09-12T00:13:43;15.60;80.70
70801;DHT22;59616;52.170;5.386;2022-09-12T00:16:19;15.50;80.70
70801;DHT22;59616;52.170;5.386;2022-09-12T00:18:46;15.50;80.90
70801;DHT22;59616;52.170;5.386;2022-09-12T00:21:14;15.50;81.00
70801;DHT22;59616;52.170;5.386;2022-09-12T00:23:41;15.50;80.90
70801;DHT22;59616;52.170;5.386;2022-09-12T00:26:08;15.50;80.80
70801;DHT22;59616;52.170;5.386;2022-09-12T00:28:37;15.40;80.70
70801;DHT22;59616;52.170;5.386;2022-09-12T00:31:07;15.40;80.80
70801;DHT22;59616;52.170;5.386;2022-09-12T00:33:34;15.40;80.80
70801;DHT22;59616;52.170;5.386;2022-09-12T00:36:11;15.40;80.80
70801;DHT22;59616;52.170;5.386;2022-09-12T00:38:38;15.40;80.80
70801;DHT22;59616;52.170;5.386;2022-09-12T00:41:14;15.30;80.80
70801;DHT22;59616;52.170;5.386;2022-09-12T00:43:56;15.30;80.70
70801;DHT22;59616;52.170;5.386;2022-09-12T00:46:44;15.30;80.70
70801;DHT22;59616;52.170;5.386;2022-09-12T00:49:17;15.30;80.70
70801;DHT22;59616;52.170;5.386;2022-09-12T00:51:58;15.30;80.90
70801;DHT22;59616;52.170;5.386;2022-09-12T00:54:29;15.20;81.10
70801;DHT22;59616;52.170;5.386;2022-09-12T00:57:00;15.20;81.20
70801;DHT22;59616;52.170;5.386;2022-09-12T00:59:40;15.20;81.30
70801;DHT22;59616;52.170;5.386;2022-09-12T01:02:08;15.20;81.30
70801;DHT22;59616;52.170;5.386;2022-09-12T01:04:37;15.20;81.30
70801;DHT22;59616;52.170;5.386;2022-09-12T01:07:07;15.10;81.30
70801;DHT22;59616;52.170;5.386;2022-09-12T01:09:35;15.10;81.30
70801;DHT22;59616;52.170;5.386;2022-09-12T01:12:03;15.10;81.40
70801;DHT22;59616;52.170;5.386;2022-09-12T01:14:31;15.10;81.30
70801;DHT22;59616;52.170;5.386;2022-09-12T01:16:58;15.10;81.30
70801;DHT22;59616;52.170;5.386;2022-09-12T01:24:39;15.10;81.50
70801;DHT22;59616;52.170;5.386;2022-09-12T01:36:35;15.00;81.50
70801;DHT22;59616;52.170;5.386;2022-09-12T01:39:09;15.00;81.50
70801;DHT22;59616;52.170;5.386;2022-09-12T01:47:42;14.90;81.40
70801;DHT22;59616;52.170;5.386;2022-09-12T01:50:17;14.90;81.50
70801;DHT22;59616;52.170;5.386;2022-09-12T01:52:50;14.90;81.50
70801;DHT22;59616;52.170;5.386;2022-09-12T01:55:40;14.90;81.50
70801;DHT22;59616;52.170;5.386;2022-09-12T01:58:14;14.90;81.50
70801;DHT22;59616;52.170;5.386;2022-09-12T02:01:00;14.90;81.50
70801;DHT22;59616;52.170;5.386;2022-09-12T02:03:40;14.80;81.40
70801;DHT22;59616;52.170;5.386;2022-09-12T02:06:26;14.80;81.40
70801;DHT22;59616;52.170;5.386;2022-09-12T02:09:17;14.80;81.40
70801;DHT22;59616;52.170;5.386;2022-09-12T02:11:45;14.80;81.40
70801;DHT22;59616;52.170;5.386;2022-09-12T02:14:19;14.70;81.50
70801;DHT22;59616;52.170;5.386;2022-09-12T02:16:57;14.70;81.60
70801;DHT22;59616;52.170;5.386;2022-09-12T02:19:35;14.70;81.60
70801;DHT22;59616;52.170;5.386;2022-09-12T02:22:04;14.70;81.60
70801;DHT22;59616;52.170;5.386;2022-09-12T02:24:36;14.70;81.60
70801;DHT22;59616;52.170;5.386;2022-09-12T02:27:26;14.70;81.60
70801;DHT22;59616;52.170;5.386;2022-09-12T02:29:53;14.70;81.60
70801;DHT22;59616;52.170;5.386;2022-09-12T02:32:29;14.60;81.60
70801;DHT22;59616;52.170;5.386;2022-09-12T02:35:11;14.60;81.60
70801;DHT22;59616;52.170;5.386;2022-09-12T02:40:13;14.60;81.60
70801;DHT22;59616;52.170;5.386;2022-09-12T02:42:40;14.60;81.50
70801;DHT22;59616;52.170;5.386;2022-09-12T02:45:08;14.60;81.50
70801;DHT22;59616;52.170;5.386;2022-09-12T02:47:42;14.50;81.70
70801;DHT22;59616;52.170;5.386;2022-09-12T02:50:11;14.50;81.70
70801;DHT22;59616;52.170;5.386;2022-09-12T02:52:39;14.50;81.80
70801;DHT22;59616;52.170;5.386;2022-09-12T02:55:06;14.50;81.80
70801;DHT22;59616;52.170;5.386;2022-09-12T02:57:33;14.50;81.80
70801;DHT22;59616;52.170;5.386;2022-09-12T03:00:00;14.50;81.90
70801;DHT22;59616;52.170;5.386;2022-09-12T03:13:56;14.50;82.10
70801;DHT22;59616;52.170;5.386;2022-09-12T03:19:08;14.50;82.10
70801;DHT22;59616;52.170;5.386;2022-09-12T03:22:08;14.50;82.10
70801;DHT22;59616;52.170;5.386;2022-09-12T03:24:42;14.50;82.30
70801;DHT22;59616;52.170;5.386;2022-09-12T03:27:28;14.50;82.40
70801;DHT22;59616;52.170;5.386;2022-09-12T03:29:55;14.50;82.40
70801;DHT22;59616;52.170;5.386;2022-09-12T03:32:43;14.50;82.40
70801;DHT22;59616;52.170;5.386;2022-09-12T03:35:11;14.50;82.40
70801;DHT22;59616;52.170;5.386;2022-09-12T03:37:37;14.40;82.40
70801;DHT22;59616;52.170;5.386;2022-09-12T03:40:06;14.40;82.40
70801;DHT22;59616;52.170;5.386;2022-09-12T03:42:33;14.40;82.60
70801;DHT22;59616;52.170;5.386;2022-09-12T03:45:00;14.40;82.70
70801;DHT22;59616;52.170;5.386;2022-09-12T03:47:26;14.30;82.30
70801;DHT22;59616;52.170;5.386;2022-09-12T03:49:53;14.30;82.60
70801;DHT22;59616;52.170;5.386;2022-09-12T03:52:19;14.40;82.60
70801;DHT22;59616;52.170;5.386;2022-09-12T03:54:46;14.30;82.40
70801;DHT22;59616;52.170;5.386;2022-09-12T03:57:13;14.40;82.60
70801;DHT22;59616;52.170;5.386;2022-09-12T03:59:40;14.40;82.40
70801;DHT22;59616;52.170;5.386;2022-09-12T04:02:06;14.40;82.40
70801;DHT22;59616;52.170;5.386;2022-09-12T04:04:35;14.30;82.30
70801;DHT22;59616;52.170;5.386;2022-09-12T04:07:01;14.30;82.40
70801;DHT22;59616;52.170;5.386;2022-09-12T04:09:28;14.30;82.30
70801;DHT22;59616;52.170;5.386;2022-09-12T04:11:54;14.30;82.40
70801;DHT22;59616;52.170;5.386;2022-09-12T04:14:21;14.30;82.30
70801;DHT22;59616;52.170;5.386;2022-09-12T04:16:48;14.30;82.30
70801;DHT22;59616;52.170;5.386;2022-09-12T04:19:14;14.30;82.30
70801;DHT22;59616;52.170;5.386;2022-09-12T04:21:41;14.30;82.30
70801;DHT22;59616;52.170;5.386;2022-09-12T04:24:07;14.30;82.40
70801;DHT22;59616;52.170;5.386;2022-09-12T04:26:34;14.30;82.30
70801;DHT22;59616;52.170;5.386;2022-09-12T04:29:01;14.30;82.40
70801;DHT22;59616;52.170;5.386;2022-09-12T04:31:27;14.30;83.40
70801;DHT22;59616;52.170;5.386;2022-09-12T04:33:54;14.40;82.60
70801;DHT22;59616;52.170;5.386;2022-09-12T04:36:22;14.40;82.40
70801;DHT22;59616;52.170;5.386;2022-09-12T04:38:49;14.40;82.50
70801;DHT22;59616;52.170;5.386;2022-09-12T04:43:44;14.40;82.50
70801;DHT22;59616;52.170;5.386;2022-09-12T04:46:14;14.40;82.60
70801;DHT22;59616;52.170;5.386;2022-09-12T04:48:42;14.40;82.60
70801;DHT22;59616;52.170;5.386;2022-09-12T04:51:20;14.40;82.60
70801;DHT22;59616;52.170;5.386;2022-09-12T04:53:48;14.50;82.80
70801;DHT22;59616;52.170;5.386;2022-09-12T04:56:16;14.50;82.90
70801;DHT22;59616;52.170;5.386;2022-09-12T04:58:43;14.50;83.00
70801;DHT22;59616;52.170;5.386;2022-09-12T05:01:18;14.50;82.90
70801;DHT22;59616;52.170;5.386;2022-09-12T05:03:46;14.60;83.00
70801;DHT22;59616;52.170;5.386;2022-09-12T05:06:22;14.60;82.80
70801;DHT22;59616;52.170;5.386;2022-09-12T05:08:50;14.60;83.00
70801;DHT22;59616;52.170;5.386;2022-09-12T05:11:22;14.70;83.00
70801;DHT22;59616;52.170;5.386;2022-09-12T05:13:56;14.70;82.90
70801;DHT22;59616;52.170;5.386;2022-09-12T05:16:24;14.70;82.90
70801;DHT22;59616;52.170;5.386;2022-09-12T05:18:51;14.80;82.70
70801;DHT22;59616;52.170;5.386;2022-09-12T05:21:20;14.80;82.70
70801;DHT22;59616;52.170;5.386;2022-09-12T05:23:52;14.80;82.60
70801;DHT22;59616;52.170;5.386;2022-09-12T05:26:20;14.80;82.60
70801;DHT22;59616;52.170;5.386;2022-09-12T05:28:47;14.80;82.60
70801;DHT22;59616;52.170;5.386;2022-09-12T05:31:20;14.90;82.60
70801;DHT22;59616;52.170;5.386;2022-09-12T05:33:48;14.80;82.70
70801;DHT22;59616;52.170;5.386;2022-09-12T05:36:24;14.80;82.70
70801;DHT22;59616;52.170;5.386;2022-09-12T05:38:51;14.80;82.70
70801;DHT22;59616;52.170;5.386;2022-09-12T05:41:23;14.80;82.80
70801;DHT22;59616;52.170;5.386;2022-09-12T05:43:51;14.90;82.80
70801;DHT22;59616;52.170;5.386;2022-09-12T05:46:19;14.80;82.60
70801;DHT22;59616;52.170;5.386;2022-09-12T05:48:47;14.90;82.60
70801;DHT22;59616;52.170;5.386;2022-09-12T05:51:25;14.90;82.60
70801;DHT22;59616;52.170;5.386;2022-09-12T05:53:55;14.90;82.60
70801;DHT22;59616;52.170;5.386;2022-09-12T05:56:24;14.80;82.70
70801;DHT22;59616;52.170;5.386;2022-09-12T05:58:56;14.80;82.80
70801;DHT22;59616;52.170;5.386;2022-09-12T06:01:23;14.90;82.90
70801;DHT22;59616;52.170;5.386;2022-09-12T06:03:52;14.90;82.80
70801;DHT22;59616;52.170;5.386;2022-09-12T06:06:21;14.90;82.70
70801;DHT22;59616;52.170;5.386;2022-09-12T06:08:50;14.90;82.80
70801;DHT22;59616;52.170;5.386;2022-09-12T06:11:20;14.90;82.70
70801;DHT22;59616;52.170;5.386;2022-09-12T06:13:47;14.90;82.80
70801;DHT22;59616;52.170;5.386;2022-09-12T06:16:15;14.90;82.70
70801;DHT22;59616;52.170;5.386;2022-09-12T06:18:48;14.90;83.00
70801;DHT22;59616;52.170;5.386;2022-09-12T06:21:15;15.00;83.10
70801;DHT22;59616;52.170;5.386;2022-09-12T06:23:41;15.00;82.90
70801;DHT22;59616;52.170;5.386;2022-09-12T06:26:09;15.00;82.90
70801;DHT22;59616;52.170;5.386;2022-09-12T06:28:38;15.10;82.80
70801;DHT22;59616;52.170;5.386;2022-09-12T06:31:11;15.10;82.90
70801;DHT22;59616;52.170;5.386;2022-09-12T06:33:41;15.00;82.90
70801;DHT22;59616;52.170;5.386;2022-09-12T06:36:16;15.10;82.90
70801;DHT22;59616;52.170;5.386;2022-09-12T06:38:44;15.10;83.00
70801;DHT22;59616;52.170;5.386;2022-09-12T06:41:14;15.10;83.00
70801;DHT22;59616;52.170;5.386;2022-09-12T06:43:41;15.10;83.00
70801;DHT22;59616;52.170;5.386;2022-09-12T06:46:09;15.10;83.10
70801;DHT22;59616;52.170;5.386;2022-09-12T06:48:36;15.20;83.10
70801;DHT22;59616;52.170;5.386;2022-09-12T06:51:16;15.20;83.10
70801;DHT22;59616;52.170;5.386;2022-09-12T06:53:44;15.30;83.20
70801;DHT22;59616;52.170;5.386;2022-09-12T06:56:12;15.30;83.10
70801;DHT22;59616;52.170;5.386;2022-09-12T06:58:40;15.30;83.10
70801;DHT22;59616;52.170;5.386;2022-09-12T07:01:10;15.40;83.20
70801;DHT22;59616;52.170;5.386;2022-09-12T07:03:37;15.40;83.30
70801;DHT22;59616;52.170;5.386;2022-09-12T07:06:09;15.40;83.30
70801;DHT22;59616;52.170;5.386;2022-09-12T07:08:37;15.50;83.30
70801;DHT22;59616;52.170;5.386;2022-09-12T07:13:34;15.60;83.50
70801;DHT22;59616;52.170;5.386;2022-09-12T07:16:02;15.60;83.50
70801;DHT22;59616;52.170;5.386;2022-09-12T07:18:29;15.70;83.40
70801;DHT22;59616;52.170;5.386;2022-09-12T07:20:59;15.80;83.30
70801;DHT22;59616;52.170;5.386;2022-09-12T07:23:28;15.80;83.20
70801;DHT22;59616;52.170;5.386;2022-09-12T07:25:56;15.80;83.20
70801;DHT22;59616;52.170;5.386;2022-09-12T07:28:24;15.90;83.20
70801;DHT22;59616;52.170;5.386;2022-09-12T07:30:51;16.00;83.20
70801;DHT22;59616;52.170;5.386;2022-09-12T07:33:20;16.00;83.10
70801;DHT22;59616;52.170;5.386;2022-09-12T07:35:48;16.10;83.10
70801;DHT22;59616;52.170;5.386;2022-09-12T07:38:15;16.10;83.10
70801;DHT22;59616;52.170;5.386;2022-09-12T07:40:42;16.20;83.00
70801;DHT22;59616;52.170;5.386;2022-09-12T07:43:09;16.30;82.90
70801;DHT22;59616;52.170;5.386;2022-09-12T07:45:36;16.30;82.80
70801;DHT22;59616;52.170;5.386;2022-09-12T07:48:03;16.40;82.70
70801;DHT22;59616;52.170;5.386;2022-09-12T07:50:29;16.40;82.60
70801;DHT22;59616;52.170;5.386;2022-09-12T07:52:56;16.50;82.60
70801;DHT22;59616;52.170;5.386;2022-09-12T07:55:23;16.60;82.50
70801;DHT22;59616;52.170;5.386;2022-09-12T07:57:50;16.60;82.20
70801;DHT22;59616;52.170;5.386;2022-09-12T08:00:18;16.70;82.20
70801;DHT22;59616;52.170;5.386;2022-09-12T08:02:49;16.80;82.30
70801;DHT22;59616;52.170;5.386;2022-09-12T08:05:15;16.80;82.20
70801;DHT22;59616;52.170;5.386;2022-09-12T08:07:42;17.00;82.20
70801;DHT22;59616;52.170;5.386;2022-09-12T08:10:09;17.00;82.10
70801;DHT22;59616;52.170;5.386;2022-09-12T08:12:35;17.10;82.00
70801;DHT22;59616;52.170;5.386;2022-09-12T08:15:02;17.20;82.00
70801;DHT22;59616;52.170;5.386;2022-09-12T08:17:29;17.30;81.70
70801;DHT22;59616;52.170;5.386;2022-09-12T08:19:55;17.40;81.50
70801;DHT22;59616;52.170;5.386;2022-09-12T08:22:22;17.50;81.40
70801;DHT22;59616;52.170;5.386;2022-09-12T08:24:49;17.70;81.30
70801;DHT22;59616;52.170;5.386;2022-09-12T08:27:16;17.80;81.10
70801;DHT22;59616;52.170;5.386;2022-09-12T08:29:43;17.90;80.90
70801;DHT22;59616;52.170;5.386;2022-09-12T08:32:09;18.00;80.70
70801;DHT22;59616;52.170;5.386;2022-09-12T08:34:36;18.10;80.40
70801;DHT22;59616;52.170;5.386;2022-09-12T08:37:03;18.30;80.10
70801;DHT22;59616;52.170;5.386;2022-09-12T08:39:30;18.40;79.80
70801;DHT22;59616;52.170;5.386;2022-09-12T08:42:05;18.50;79.50
70801;DHT22;59616;52.170;5.386;2022-09-12T08:55:25;19.40;79.00
70801;DHT22;59616;52.170;5.386;2022-09-12T08:57:53;19.60;77.80
70801;DHT22;59616;52.170;5.386;2022-09-12T09:00:20;19.90;77.40
70801;DHT22;59616;52.170;5.386;2022-09-12T09:05:44;20.30;76.00
70801;DHT22;59616;52.170;5.386;2022-09-12T09:11:44;20.70;75.10
70801;DHT22;59616;52.170;5.386;2022-09-12T09:16:43;21.10;73.90
70801;DHT22;59616;52.170;5.386;2022-09-12T09:19:20;21.20;73.70
70801;DHT22;59616;52.170;5.386;2022-09-12T09:22:00;21.30;73.30
70801;DHT22;59616;52.170;5.386;2022-09-12T09:24:45;21.50;73.10
70801;DHT22;59616;52.170;5.386;2022-09-12T09:27:32;21.60;72.70
70801;DHT22;59616;52.170;5.386;2022-09-12T09:30:18;21.70;71.70
70801;DHT22;59616;52.170;5.386;2022-09-12T09:32:49;21.80;71.20
70801;DHT22;59616;52.170;5.386;2022-09-12T09:35:25;21.90;70.80
70801;DHT22;59616;52.170;5.386;2022-09-12T09:43:22;22.10;70.00
70801;DHT22;59616;52.170;5.386;2022-09-12T09:45:51;22.20;69.80
70801;DHT22;59616;52.170;5.386;2022-09-12T09:48:22;22.20;69.80
70801;DHT22;59616;52.170;5.386;2022-09-12T09:50:51;22.30;69.80
70801;DHT22;59616;52.170;5.386;2022-09-12T09:53:31;22.40;69.70
70801;DHT22;59616;52.170;5.386;2022-09-12T09:56:04;22.50;69.50
70801;DHT22;59616;52.170;5.386;2022-09-12T09:58:34;22.60;68.80
70801;DHT22;59616;52.170;5.386;2022-09-12T10:01:03;22.60;68.40
70801;DHT22;59616;52.170;5.386;2022-09-12T10:03:39;22.70;67.90
70801;DHT22;59616;52.170;5.386;2022-09-12T10:06:20;22.80;67.60
70801;DHT22;59616;52.170;5.386;2022-09-12T10:08:48;22.80;67.00
70801;DHT22;59616;52.170;5.386;2022-09-12T10:11:20;22.90;66.70
70801;DHT22;59616;52.170;5.386;2022-09-12T10:13:56;23.00;66.60
70801;DHT22;59616;52.170;5.386;2022-09-12T10:16:26;23.00;66.10
70801;DHT22;59616;52.170;5.386;2022-09-12T10:18:58;23.20;66.10
70801;DHT22;59616;52.170;5.386;2022-09-12T10:21:31;23.20;65.50
70801;DHT22;59616;52.170;5.386;2022-09-12T10:24:12;23.30;64.70
70801;DHT22;59616;52.170;5.386;2022-09-12T10:26:43;23.30;64.40
70801;DHT22;59616;52.170;5.386;2022-09-12T10:29:18;23.30;64.40
70801;DHT22;59616;52.170;5.386;2022-09-12T10:31:51;23.30;64.00
70801;DHT22;59616;52.170;5.386;2022-09-12T10:34:33;23.40;63.90
70801;DHT22;59616;52.170;5.386;2022-09-12T10:37:05;23.40;63.80
70801;DHT22;59616;52.170;5.386;2022-09-12T10:39:34;23.50;63.50
70801;DHT22;59616;52.170;5.386;2022-09-12T10:42:04;23.60;63.10
70801;DHT22;59616;52.170;5.386;2022-09-12T10:44:34;23.60;63.50
70801;DHT22;59616;52.170;5.386;2022-09-12T10:47:20;23.70;63.70
70801;DHT22;59616;52.170;5.386;2022-09-12T10:49:47;23.80;63.50
70801;DHT22;59616;52.170;5.386;2022-09-12T10:52:25;23.90;63.10
70801;DHT22;59616;52.170;5.386;2022-09-12T10:54:52;24.00;62.40
70801;DHT22;59616;52.170;5.386;2022-09-12T10:57:55;24.20;62.40
70801;DHT22;59616;52.170;5.386;2022-09-12T11:00:26;24.20;62.10
70801;DHT22;59616;52.170;5.386;2022-09-12T11:03:14;24.40;61.80
70801;DHT22;59616;52.170;5.386;2022-09-12T11:10:50;24.70;60.30
70801;DHT22;59616;52.170;5.386;2022-09-12T11:24:21;25.00;59.20
70801;DHT22;59616;52.170;5.386;2022-09-12T11:27:05;25.20;58.70
70801;DHT22;59616;52.170;5.386;2022-09-12T11:30:00;25.30;57.80
70801;DHT22;59616;52.170;5.386;2022-09-12T11:35:18;25.30;57.80
70801;DHT22;59616;52.170;5.386;2022-09-12T11:37:57;25.20;58.60
70801;DHT22;59616;52.170;5.386;2022-09-12T11:40:37;25.20;58.20
70801;DHT22;59616;52.170;5.386;2022-09-12T11:45:50;25.20;57.80
70801;DHT22;59616;52.170;5.386;2022-09-12T11:48:33;25.10;57.10
70801;DHT22;59616;52.170;5.386;2022-09-12T11:51:06;25.10;57.10
70801;DHT22;59616;52.170;5.386;2022-09-12T11:53:41;25.10;57.10
70801;DHT22;59616;52.170;5.386;2022-09-12T11:56:15;25.10;57.10
70801;DHT22;59616;52.170;5.386;2022-09-12T11:58:48;25.20;57.50
70801;DHT22;59616;52.170;5.386;2022-09-12T12:01:38;25.20;56.40
70801;DHT22;59616;52.170;5.386;2022-09-12T12:04:16;25.10;56.50
70801;DHT22;59616;52.170;5.386;2022-09-12T12:06:53;25.20;56.30
70801;DHT22;59616;52.170;5.386;2022-09-12T12:09:21;25.20;56.30
70801;DHT22;59616;52.170;5.386;2022-09-12T12:11:53;25.30;55.70
70801;DHT22;59616;52.170;5.386;2022-09-12T12:14:42;25.30;55.60
70801;DHT22;59616;52.170;5.386;2022-09-12T12:17:28;25.20;55.20
70801;DHT22;59616;52.170;5.386;2022-09-12T12:20:02;25.30;55.30
70801;DHT22;59616;52.170;5.386;2022-09-12T12:22:34;25.30;55.30
70801;DHT22;59616;52.170;5.386;2022-09-12T12:25:21;25.30;54.80
70801;DHT22;59616;52.170;5.386;2022-09-12T12:27:57;25.30;54.10
70801;DHT22;59616;52.170;5.386;2022-09-12T12:38:35;25.30;54.30
70801;DHT22;59616;52.170;5.386;2022-09-12T12:43:46;25.40;54.60
70801;DHT22;59616;52.170;5.386;2022-09-12T12:46:15;25.40;54.40
70801;DHT22;59616;52.170;5.386;2022-09-12T12:49:17;25.40;54.20
70801;DHT22;59616;52.170;5.386;2022-09-12T12:52:00;25.40;53.90
70801;DHT22;59616;52.170;5.386;2022-09-12T12:59:44;25.30;54.00
70801;DHT22;59616;52.170;5.386;2022-09-12T13:02:34;25.30;54.50
70801;DHT22;59616;52.170;5.386;2022-09-12T13:05:06;25.30;54.50
70801;DHT22;59616;52.170;5.386;2022-09-12T13:07:41;25.30;53.80
70801;DHT22;59616;52.170;5.386;2022-09-12T13:10:21;25.40;54.50
70801;DHT22;59616;52.170;5.386;2022-09-12T13:12:49;25.40;54.00
70801;DHT22;59616;52.170;5.386;2022-09-12T13:18:08;25.40;53.60
70801;DHT22;59616;52.170;5.386;2022-09-12T13:20:47;25.40;53.30
70801;DHT22;59616;52.170;5.386;2022-09-12T13:23:26;25.50;52.90
70801;DHT22;59616;52.170;5.386;2022-09-12T13:25:58;25.50;52.90
70801;DHT22;59616;52.170;5.386;2022-09-12T13:28:27;25.50;52.40
70801;DHT22;59616;52.170;5.386;2022-09-12T13:30:58;25.50;52.70
70801;DHT22;59616;52.170;5.386;2022-09-12T13:38:57;25.50;53.50
70801;DHT22;59616;52.170;5.386;2022-09-12T13:44:19;25.40;53.40
70801;DHT22;59616;52.170;5.386;2022-09-12T13:46:47;25.30;53.30
70801;DHT22;59616;52.170;5.386;2022-09-12T13:49:30;25.30;53.10
70801;DHT22;59616;52.170;5.386;2022-09-12T13:52:02;25.20;52.50
70801;DHT22;59616;52.170;5.386;2022-09-12T13:54:30;25.20;53.20
70801;DHT22;59616;52.170;5.386;2022-09-12T13:56:57;25.20;53.40
70801;DHT22;59616;52.170;5.386;2022-09-12T13:59:25;25.20;53.90
70801;DHT22;59616;52.170;5.386;2022-09-12T14:01:51;25.30;53.60
70801;DHT22;59616;52.170;5.386;2022-09-12T14:04:24;25.30;53.00
70801;DHT22;59616;52.170;5.386;2022-09-12T14:07:13;25.40;52.50
70801;DHT22;59616;52.170;5.386;2022-09-12T14:09:43;25.50;52.70
70801;DHT22;59616;52.170;5.386;2022-09-12T14:12:29;25.60;52.80
70801;DHT22;59616;52.170;5.386;2022-09-12T14:14:57;25.60;53.90
70801;DHT22;59616;52.170;5.386;2022-09-12T14:17:30;25.60;52.40
70801;DHT22;59616;52.170;5.386;2022-09-12T14:20:00;25.60;52.00
70801;DHT22;59616;52.170;5.386;2022-09-12T14:22:29;25.50;51.80
70801;DHT22;59616;52.170;5.386;2022-09-12T14:24:57;25.60;52.00
70801;DHT22;59616;52.170;5.386;2022-09-12T14:27:27;25.50;52.00
70801;DHT22;59616;52.170;5.386;2022-09-12T14:30:07;25.50;52.20
70801;DHT22;59616;52.170;5.386;2022-09-12T14:32:34;25.50;51.70
70801;DHT22;59616;52.170;5.386;2022-09-12T14:37:48;25.30;51.60
70801;DHT22;59616;52.170;5.386;2022-09-12T14:40:18;25.30;51.90
70801;DHT22;59616;52.170;5.386;2022-09-12T14:42:49;25.30;52.00
70801;DHT22;59616;52.170;5.386;2022-09-12T14:45:26;25.30;51.90
70801;DHT22;59616;52.170;5.386;2022-09-12T14:47:54;25.50;51.70
70801;DHT22;59616;52.170;5.386;2022-09-12T14:50:24;25.50;51.80
70801;DHT22;59616;52.170;5.386;2022-09-12T14:53:22;25.50;51.90
70801;DHT22;59616;52.170;5.386;2022-09-12T14:56:02;25.60;51.70
70801;DHT22;59616;52.170;5.386;2022-09-12T14:58:31;25.50;51.20
70801;DHT22;59616;52.170;5.386;2022-09-12T15:01:20;25.50;51.10
70801;DHT22;59616;52.170;5.386;2022-09-12T15:03:54;25.40;51.20
70801;DHT22;59616;52.170;5.386;2022-09-12T15:06:30;25.20;51.40
70801;DHT22;59616;52.170;5.386;2022-09-12T15:09:01;25.10;52.10
70801;DHT22;59616;52.170;5.386;2022-09-12T15:11:28;25.00;52.00
70801;DHT22;59616;52.170;5.386;2022-09-12T15:13:55;24.90;52.50
70801;DHT22;59616;52.170;5.386;2022-09-12T15:16:21;24.90;52.80
70801;DHT22;59616;52.170;5.386;2022-09-12T15:18:48;24.90;52.60
70801;DHT22;59616;52.170;5.386;2022-09-12T15:21:17;25.00;53.80
70801;DHT22;59616;52.170;5.386;2022-09-12T15:23:48;24.90;52.90
70801;DHT22;59616;52.170;5.386;2022-09-12T15:26:20;24.80;52.70
70801;DHT22;59616;52.170;5.386;2022-09-12T15:28:48;24.70;53.20
70801;DHT22;59616;52.170;5.386;2022-09-12T15:31:26;24.60;53.00
70801;DHT22;59616;52.170;5.386;2022-09-12T15:33:54;24.60;53.10
70801;DHT22;59616;52.170;5.386;2022-09-12T15:36:22;24.60;53.00
70801;DHT22;59616;52.170;5.386;2022-09-12T15:38:50;24.60;52.70
70801;DHT22;59616;52.170;5.386;2022-09-12T15:41:36;24.60;53.10
70801;DHT22;59616;52.170;5.386;2022-09-12T15:44:05;24.50;53.30
70801;DHT22;59616;52.170;5.386;2022-09-12T15:46:32;24.50;53.60
70801;DHT22;59616;52.170;5.386;2022-09-12T15:48:59;24.40;53.70
70801;DHT22;59616;52.170;5.386;2022-09-12T15:51:25;24.40;53.70
70801;DHT22;59616;52.170;5.386;2022-09-12T15:53:53;24.40;53.90
70801;DHT22;59616;52.170;5.386;2022-09-12T15:56:20;24.50;53.70
70801;DHT22;59616;52.170;5.386;2022-09-12T15:58:48;24.60;53.60
70801;DHT22;59616;52.170;5.386;2022-09-12T16:01:26;24.70;53.40
70801;DHT22;59616;52.170;5.386;2022-09-12T16:03:53;24.70;53.20
70801;DHT22;59616;52.170;5.386;2022-09-12T16:06:20;24.80;52.80
70801;DHT22;59616;52.170;5.386;2022-09-12T16:08:47;24.80;52.80
70801;DHT22;59616;52.170;5.386;2022-09-12T16:11:25;24.70;53.20
70801;DHT22;59616;52.170;5.386;2022-09-12T16:13:52;24.70;53.10
70801;DHT22;59616;52.170;5.386;2022-09-12T16:16:19;24.70;52.90
70801;DHT22;59616;52.170;5.386;2022-09-12T16:18:46;24.70;54.00
70801;DHT22;59616;52.170;5.386;2022-09-12T16:21:13;24.70;53.20
70801;DHT22;59616;52.170;5.386;2022-09-12T16:23:45;24.70;53.00
70801;DHT22;59616;52.170;5.386;2022-09-12T16:26:12;24.60;53.00
70801;DHT22;59616;52.170;5.386;2022-09-12T16:28:39;24.50;52.90
70801;DHT22;59616;52.170;5.386;2022-09-12T16:31:09;24.40;52.70
70801;DHT22;59616;52.170;5.386;2022-09-12T16:33:36;24.40;52.90
70801;DHT22;59616;52.170;5.386;2022-09-12T16:36:12;24.40;53.00
70801;DHT22;59616;52.170;5.386;2022-09-12T16:38:40;24.30;53.10
70801;DHT22;59616;52.170;5.386;2022-09-12T16:41:07;24.20;53.30
70801;DHT22;59616;52.170;5.386;2022-09-12T16:43:34;24.10;53.30
70801;DHT22;59616;52.170;5.386;2022-09-12T16:46:03;24.00;53.60
70801;DHT22;59616;52.170;5.386;2022-09-12T16:48:31;23.90;53.70
70801;DHT22;59616;52.170;5.386;2022-09-12T16:50:58;23.90;53.80
70801;DHT22;59616;52.170;5.386;2022-09-12T16:53:32;23.80;54.00
70801;DHT22;59616;52.170;5.386;2022-09-12T16:55:59;23.80;54.20
70801;DHT22;59616;52.170;5.386;2022-09-12T16:58:26;23.70;54.20
70801;DHT22;59616;52.170;5.386;2022-09-12T17:01:01;23.70;54.20
70801;DHT22;59616;52.170;5.386;2022-09-12T17:03:29;23.70;54.40
70801;DHT22;59616;52.170;5.386;2022-09-12T17:05:58;23.60;54.40
70801;DHT22;59616;52.170;5.386;2022-09-12T17:08:25;23.60;54.70
70801;DHT22;59616;52.170;5.386;2022-09-12T17:10:51;23.50;54.70
70801;DHT22;59616;52.170;5.386;2022-09-12T17:13:18;23.50;55.10
70801;DHT22;59616;52.170;5.386;2022-09-12T17:15:45;23.40;55.30
70801;DHT22;59616;52.170;5.386;2022-09-12T17:18:11;23.30;55.60
70801;DHT22;59616;52.170;5.386;2022-09-12T17:20:38;23.20;55.90
70801;DHT22;59616;52.170;5.386;2022-09-12T17:23:05;23.20;56.20
70801;DHT22;59616;52.170;5.386;2022-09-12T17:25:35;23.10;56.30
70801;DHT22;59616;52.170;5.386;2022-09-12T17:28:02;23.10;56.50
70801;DHT22;59616;52.170;5.386;2022-09-12T17:30:35;23.00;56.50
70801;DHT22;59616;52.170;5.386;2022-09-12T17:33:02;22.90;57.00
70801;DHT22;59616;52.170;5.386;2022-09-12T17:35:28;22.80;57.10
70801;DHT22;59616;52.170;5.386;2022-09-12T17:37:55;22.80;57.40
70801;DHT22;59616;52.170;5.386;2022-09-12T17:40:21;22.70;57.70
70801;DHT22;59616;52.170;5.386;2022-09-12T17:43:08;22.60;57.90
70801;DHT22;59616;52.170;5.386;2022-09-12T17:45:37;22.60;58.40
70801;DHT22;59616;52.170;5.386;2022-09-12T17:48:04;22.50;58.70
70801;DHT22;59616;52.170;5.386;2022-09-12T17:50:36;22.50;59.20
70801;DHT22;59616;52.170;5.386;2022-09-12T17:53:05;22.30;59.70
70801;DHT22;59616;52.170;5.386;2022-09-12T17:55:36;22.30;60.00